sensor_id;sensor_type;location;lat;lon;timestamp;P1;durP1;ratioP1;P2;durP2;ratioP2
70247;SDS011;57641;51.416;5.506;2022-08-03T00:00:43;6.35;;;2.42;;
70247;SDS011;57641;51.416;5.506;2022-08-03T00:03:09;7.10;;;2.53;;
70247;SDS011;57641;51.416;5.506;2022-08-03T00:05:35;4.75;;;2.42;;
70247;SDS011;57641;51.416;5.506;2022-08-03T00:08:01;4.68;;;2.50;;
70247;SDS011;57641;51.416;5.506;2022-08-03T00:10:26;4.75;;;2.47;;
70247;SDS011;57641;51.416;5.506;2022-08-03T00:12:52;6.63;;;2.28;;
70247;SDS011;57641;51.416;5.506;2022-08-03T00:15:19;3.72;;;2.20;;
70247;SDS011;57641;51.416;5.506;2022-08-03T00:17:44;4.15;;;2.00;;
70247;SDS011;57641;51.416;5.506;2022-08-03T00:20:13;5.55;;;2.30;;
70247;SDS011;57641;51.416;5.506;2022-08-03T00:22:39;4.90;;;2.35;;
70247;SDS011;57641;51.416;5.506;2022-08-03T00:25:05;5.57;;;2.50;;
70247;SDS011;57641;51.416;5.506;2022-08-03T00:27:30;6.18;;;2.40;;
70247;SDS011;57641;51.416;5.506;2022-08-03T00:29:56;4.00;;;2.30;;
70247;SDS011;57641;51.416;5.506;2022-08-03T00:32:21;7.97;;;2.30;;
70247;SDS011;57641;51.416;5.506;2022-08-03T00:34:47;4.28;;;2.40;;
70247;SDS011;57641;51.416;5.506;2022-08-03T00:37:13;3.65;;;2.10;;
70247;SDS011;57641;51.416;5.506;2022-08-03T00:39:38;5.80;;;2.50;;
70247;SDS011;57641;51.416;5.506;2022-08-03T00:42:05;7.68;;;2.70;;
70247;SDS011;57641;51.416;5.506;2022-08-03T00:44:37;4.32;;;2.42;;
70247;SDS011;57641;51.416;5.506;2022-08-03T00:47:05;6.57;;;2.58;;
70247;SDS011;57641;51.416;5.506;2022-08-03T00:49:32;5.43;;;2.63;;
70247;SDS011;57641;51.416;5.506;2022-08-03T00:52:00;6.38;;;2.92;;
70247;SDS011;57641;51.416;5.506;2022-08-03T00:54:27;5.28;;;2.50;;
70247;SDS011;57641;51.416;5.506;2022-08-03T00:56:54;4.40;;;2.45;;
70247;SDS011;57641;51.416;5.506;2022-08-03T00:59:22;8.35;;;2.92;;
70247;SDS011;57641;51.416;5.506;2022-08-03T01:01:50;4.70;;;2.65;;
70247;SDS011;57641;51.416;5.506;2022-08-03T01:04:20;5.05;;;2.55;;
70247;SDS011;57641;51.416;5.506;2022-08-03T01:09:46;4.93;;;2.50;;
70247;SDS011;57641;51.416;5.506;2022-08-03T01:15:18;6.55;;;2.47;;
70247;SDS011;57641;51.416;5.506;2022-08-03T01:17:58;5.10;;;2.47;;
70247;SDS011;57641;51.416;5.506;2022-08-03T01:20:33;7.28;;;2.50;;
70247;SDS011;57641;51.416;5.506;2022-08-03T01:26:18;4.57;;;2.25;;
70247;SDS011;57641;51.416;5.506;2022-08-03T01:32:14;6.45;;;2.45;;
70247;SDS011;57641;51.416;5.506;2022-08-03T01:34:50;4.55;;;2.28;;
70247;SDS011;57641;51.416;5.506;2022-08-03T01:37:26;6.60;;;2.33;;
70247;SDS011;57641;51.416;5.506;2022-08-03T01:40:03;6.32;;;2.50;;
70247;SDS011;57641;51.416;5.506;2022-08-03T01:42:31;4.13;;;2.05;;
70247;SDS011;57641;51.416;5.506;2022-08-03T01:44:59;3.50;;;2.35;;
70247;SDS011;57641;51.416;5.506;2022-08-03T01:47:26;4.80;;;2.33;;
70247;SDS011;57641;51.416;5.506;2022-08-03T01:49:54;4.38;;;1.80;;
70247;SDS011;57641;51.416;5.506;2022-08-03T01:52:22;3.83;;;2.10;;
70247;SDS011;57641;51.416;5.506;2022-08-03T01:54:50;8.00;;;2.53;;
70247;SDS011;57641;51.416;5.506;2022-08-03T01:57:18;6.03;;;2.58;;
70247;SDS011;57641;51.416;5.506;2022-08-03T01:59:45;3.88;;;2.25;;
70247;SDS011;57641;51.416;5.506;2022-08-03T02:02:15;4.18;;;2.28;;
70247;SDS011;57641;51.416;5.506;2022-08-03T02:04:41;4.93;;;2.53;;
70247;SDS011;57641;51.416;5.506;2022-08-03T02:07:08;4.03;;;2.17;;
70247;SDS011;57641;51.416;5.506;2022-08-03T02:09:39;4.47;;;2.28;;
70247;SDS011;57641;51.416;5.506;2022-08-03T02:12:09;5.05;;;2.28;;
70247;SDS011;57641;51.416;5.506;2022-08-03T02:14:36;4.97;;;2.08;;
70247;SDS011;57641;51.416;5.506;2022-08-03T02:17:05;3.15;;;1.90;;
70247;SDS011;57641;51.416;5.506;2022-08-03T02:19:32;5.95;;;2.30;;
70247;SDS011;57641;51.416;5.506;2022-08-03T02:21:59;5.60;;;2.30;;
70247;SDS011;57641;51.416;5.506;2022-08-03T02:24:27;9.27;;;2.67;;
70247;SDS011;57641;51.416;5.506;2022-08-03T02:26:54;5.28;;;2.72;;
70247;SDS011;57641;51.416;5.506;2022-08-03T02:29:21;6.45;;;2.92;;
70247;SDS011;57641;51.416;5.506;2022-08-03T02:31:50;7.00;;;2.70;;
70247;SDS011;57641;51.416;5.506;2022-08-03T02:34:19;4.95;;;2.38;;
70247;SDS011;57641;51.416;5.506;2022-08-03T02:36:49;4.63;;;2.47;;
70247;SDS011;57641;51.416;5.506;2022-08-03T02:39:18;5.75;;;2.40;;
70247;SDS011;57641;51.416;5.506;2022-08-03T02:41:50;5.75;;;2.20;;
70247;SDS011;57641;51.416;5.506;2022-08-03T02:44:21;4.93;;;2.53;;
70247;SDS011;57641;51.416;5.506;2022-08-03T02:46:52;5.35;;;2.70;;
70247;SDS011;57641;51.416;5.506;2022-08-03T02:49:20;4.07;;;2.30;;
70247;SDS011;57641;51.416;5.506;2022-08-03T02:51:47;4.75;;;2.47;;
70247;SDS011;57641;51.416;5.506;2022-08-03T02:54:16;7.38;;;2.83;;
70247;SDS011;57641;51.416;5.506;2022-08-03T02:56:46;7.90;;;2.47;;
70247;SDS011;57641;51.416;5.506;2022-08-03T02:59:13;5.72;;;2.38;;
70247;SDS011;57641;51.416;5.506;2022-08-03T03:01:41;5.63;;;2.70;;
70247;SDS011;57641;51.416;5.506;2022-08-03T03:04:08;5.90;;;2.75;;
70247;SDS011;57641;51.416;5.506;2022-08-03T03:06:35;5.97;;;2.80;;
70247;SDS011;57641;51.416;5.506;2022-08-03T03:09:02;5.28;;;2.78;;
70247;SDS011;57641;51.416;5.506;2022-08-03T03:11:28;4.68;;;2.35;;
70247;SDS011;57641;51.416;5.506;2022-08-03T03:13:55;6.75;;;2.72;;
70247;SDS011;57641;51.416;5.506;2022-08-03T03:16:21;7.65;;;2.90;;
70247;SDS011;57641;51.416;5.506;2022-08-03T03:18:49;5.28;;;2.53;;
70247;SDS011;57641;51.416;5.506;2022-08-03T03:21:17;3.75;;;2.65;;
70247;SDS011;57641;51.416;5.506;2022-08-03T03:23:44;5.80;;;2.60;;
70247;SDS011;57641;51.416;5.506;2022-08-03T03:26:11;7.95;;;2.97;;
70247;SDS011;57641;51.416;5.506;2022-08-03T03:28:38;4.03;;;2.35;;
70247;SDS011;57641;51.416;5.506;2022-08-03T03:31:05;6.43;;;2.78;;
70247;SDS011;57641;51.416;5.506;2022-08-03T03:33:32;6.97;;;2.90;;
70247;SDS011;57641;51.416;5.506;2022-08-03T03:35:59;6.65;;;2.85;;
70247;SDS011;57641;51.416;5.506;2022-08-03T03:38:25;5.03;;;2.60;;
70247;SDS011;57641;51.416;5.506;2022-08-03T03:40:51;6.50;;;2.90;;
70247;SDS011;57641;51.416;5.506;2022-08-03T03:43:17;6.63;;;2.78;;
70247;SDS011;57641;51.416;5.506;2022-08-03T03:45:44;5.63;;;2.78;;
70247;SDS011;57641;51.416;5.506;2022-08-03T03:48:10;4.85;;;2.75;;
70247;SDS011;57641;51.416;5.506;2022-08-03T03:50:36;4.85;;;2.80;;
70247;SDS011;57641;51.416;5.506;2022-08-03T03:53:07;6.28;;;2.88;;
70247;SDS011;57641;51.416;5.506;2022-08-03T03:55:35;4.45;;;2.88;;
70247;SDS011;57641;51.416;5.506;2022-08-03T03:58:01;5.95;;;2.50;;
70247;SDS011;57641;51.416;5.506;2022-08-03T04:00:28;4.05;;;2.55;;
70247;SDS011;57641;51.416;5.506;2022-08-03T04:02:54;5.32;;;2.35;;
70247;SDS011;57641;51.416;5.506;2022-08-03T04:05:20;4.68;;;2.88;;
70247;SDS011;57641;51.416;5.506;2022-08-03T04:08:09;5.72;;;3.00;;
70247;SDS011;57641;51.416;5.506;2022-08-03T04:16:15;4.55;;;2.90;;
70247;SDS011;57641;51.416;5.506;2022-08-03T04:18:43;3.25;;;2.10;;
70247;SDS011;57641;51.416;5.506;2022-08-03T04:21:12;6.47;;;2.67;;
70247;SDS011;57641;51.416;5.506;2022-08-03T04:23:43;5.40;;;2.90;;
70247;SDS011;57641;51.416;5.506;2022-08-03T04:26:12;5.32;;;2.85;;
70247;SDS011;57641;51.416;5.506;2022-08-03T04:28:42;8.18;;;2.70;;
70247;SDS011;57641;51.416;5.506;2022-08-03T04:31:13;5.65;;;2.40;;
70247;SDS011;57641;51.416;5.506;2022-08-03T04:33:41;6.65;;;2.90;;
70247;SDS011;57641;51.416;5.506;2022-08-03T04:36:10;7.38;;;3.00;;
70247;SDS011;57641;51.416;5.506;2022-08-03T04:41:21;3.90;;;2.45;;
70247;SDS011;57641;51.416;5.506;2022-08-03T04:43:48;7.32;;;3.13;;
70247;SDS011;57641;51.416;5.506;2022-08-03T04:46:17;4.80;;;2.72;;
70247;SDS011;57641;51.416;5.506;2022-08-03T04:48:46;6.18;;;3.17;;
70247;SDS011;57641;51.416;5.506;2022-08-03T04:51:12;4.55;;;2.45;;
70247;SDS011;57641;51.416;5.506;2022-08-03T04:53:39;5.85;;;2.85;;
70247;SDS011;57641;51.416;5.506;2022-08-03T04:56:05;7.72;;;3.75;;
70247;SDS011;57641;51.416;5.506;2022-08-03T04:58:31;5.00;;;3.00;;
70247;SDS011;57641;51.416;5.506;2022-08-03T05:00:57;5.00;;;2.53;;
70247;SDS011;57641;51.416;5.506;2022-08-03T05:03:23;5.65;;;2.83;;
70247;SDS011;57641;51.416;5.506;2022-08-03T05:05:49;5.95;;;3.05;;
70247;SDS011;57641;51.416;5.506;2022-08-03T05:08:15;7.35;;;3.20;;
70247;SDS011;57641;51.416;5.506;2022-08-03T05:10:40;4.68;;;2.90;;
70247;SDS011;57641;51.416;5.506;2022-08-03T05:13:06;6.38;;;2.88;;
70247;SDS011;57641;51.416;5.506;2022-08-03T05:15:36;4.75;;;2.85;;
70247;SDS011;57641;51.416;5.506;2022-08-03T05:18:02;10.30;;;3.65;;
70247;SDS011;57641;51.416;5.506;2022-08-03T05:20:27;5.07;;;3.20;;
70247;SDS011;57641;51.416;5.506;2022-08-03T05:22:53;5.38;;;3.22;;
70247;SDS011;57641;51.416;5.506;2022-08-03T05:25:18;7.63;;;3.28;;
70247;SDS011;57641;51.416;5.506;2022-08-03T05:27:44;4.90;;;3.22;;
70247;SDS011;57641;51.416;5.506;2022-08-03T05:30:09;5.60;;;3.40;;
70247;SDS011;57641;51.416;5.506;2022-08-03T05:32:35;5.90;;;3.35;;
70247;SDS011;57641;51.416;5.506;2022-08-03T05:35:00;4.95;;;3.03;;
70247;SDS011;57641;51.416;5.506;2022-08-03T05:37:26;5.13;;;3.08;;
70247;SDS011;57641;51.416;5.506;2022-08-03T05:39:51;6.65;;;3.45;;
70247;SDS011;57641;51.416;5.506;2022-08-03T05:42:17;4.68;;;2.80;;
70247;SDS011;57641;51.416;5.506;2022-08-03T05:44:42;8.43;;;3.10;;
70247;SDS011;57641;51.416;5.506;2022-08-03T05:47:08;4.25;;;3.00;;
70247;SDS011;57641;51.416;5.506;2022-08-03T05:49:33;6.72;;;3.00;;
70247;SDS011;57641;51.416;5.506;2022-08-03T05:51:59;5.35;;;2.88;;
70247;SDS011;57641;51.416;5.506;2022-08-03T05:54:24;5.07;;;2.47;;
70247;SDS011;57641;51.416;5.506;2022-08-03T05:56:49;5.22;;;2.85;;
70247;SDS011;57641;51.416;5.506;2022-08-03T05:59:15;6.18;;;3.05;;
70247;SDS011;57641;51.416;5.506;2022-08-03T06:01:40;7.97;;;2.67;;
70247;SDS011;57641;51.416;5.506;2022-08-03T06:04:06;6.00;;;2.47;;
70247;SDS011;57641;51.416;5.506;2022-08-03T06:06:31;3.13;;;2.13;;
70247;SDS011;57641;51.416;5.506;2022-08-03T06:08:57;5.60;;;2.85;;
70247;SDS011;57641;51.416;5.506;2022-08-03T06:11:22;4.25;;;2.40;;
70247;SDS011;57641;51.416;5.506;2022-08-03T06:13:48;5.85;;;2.33;;
70247;SDS011;57641;51.416;5.506;2022-08-03T06:16:14;4.22;;;2.40;;
70247;SDS011;57641;51.416;5.506;2022-08-03T06:18:39;8.82;;;2.95;;
70247;SDS011;57641;51.416;5.506;2022-08-03T06:21:04;5.80;;;2.15;;
70247;SDS011;57641;51.416;5.506;2022-08-03T06:23:30;4.68;;;2.15;;
70247;SDS011;57641;51.416;5.506;2022-08-03T06:25:56;6.00;;;2.40;;
70247;SDS011;57641;51.416;5.506;2022-08-03T06:28:22;4.70;;;2.00;;
70247;SDS011;57641;51.416;5.506;2022-08-03T06:30:47;4.03;;;2.00;;
70247;SDS011;57641;51.416;5.506;2022-08-03T06:33:13;6.97;;;1.95;;
70247;SDS011;57641;51.416;5.506;2022-08-03T06:35:39;5.63;;;1.90;;
70247;SDS011;57641;51.416;5.506;2022-08-03T06:38:04;4.43;;;2.15;;
70247;SDS011;57641;51.416;5.506;2022-08-03T06:40:29;3.50;;;1.85;;
70247;SDS011;57641;51.416;5.506;2022-08-03T06:43:00;3.70;;;1.70;;
70247;SDS011;57641;51.416;5.506;2022-08-03T06:45:27;6.22;;;1.90;;
70247;SDS011;57641;51.416;5.506;2022-08-03T06:48:00;3.67;;;1.55;;
70247;SDS011;57641;51.416;5.506;2022-08-03T06:50:29;4.95;;;1.80;;
70247;SDS011;57641;51.416;5.506;2022-08-03T06:52:55;7.70;;;2.00;;
70247;SDS011;57641;51.416;5.506;2022-08-03T06:55:21;4.68;;;1.80;;
70247;SDS011;57641;51.416;5.506;2022-08-03T06:57:47;3.58;;;2.20;;
70247;SDS011;57641;51.416;5.506;2022-08-03T07:00:12;4.43;;;1.58;;
70247;SDS011;57641;51.416;5.506;2022-08-03T07:02:38;9.43;;;3.08;;
70247;SDS011;57641;51.416;5.506;2022-08-03T07:05:04;3.58;;;1.80;;
70247;SDS011;57641;51.416;5.506;2022-08-03T07:07:31;4.03;;;1.67;;
70247;SDS011;57641;51.416;5.506;2022-08-03T07:09:56;6.05;;;2.15;;
70247;SDS011;57641;51.416;5.506;2022-08-03T07:12:22;6.90;;;1.80;;
70247;SDS011;57641;51.416;5.506;2022-08-03T07:14:47;6.90;;;1.90;;
70247;SDS011;57641;51.416;5.506;2022-08-03T07:17:13;6.28;;;1.92;;
70247;SDS011;57641;51.416;5.506;2022-08-03T07:19:38;9.15;;;2.15;;
70247;SDS011;57641;51.416;5.506;2022-08-03T07:22:04;4.40;;;1.73;;
70247;SDS011;57641;51.416;5.506;2022-08-03T07:24:30;5.53;;;1.75;;
70247;SDS011;57641;51.416;5.506;2022-08-03T07:26:55;5.40;;;1.90;;
70247;SDS011;57641;51.416;5.506;2022-08-03T07:29:21;4.13;;;1.48;;
70247;SDS011;57641;51.416;5.506;2022-08-03T07:31:46;3.17;;;1.52;;
70247;SDS011;57641;51.416;5.506;2022-08-03T07:34:11;7.35;;;1.90;;
70247;SDS011;57641;51.416;5.506;2022-08-03T07:36:37;4.32;;;1.50;;
70247;SDS011;57641;51.416;5.506;2022-08-03T07:39:02;5.55;;;1.50;;
70247;SDS011;57641;51.416;5.506;2022-08-03T07:41:28;9.07;;;1.90;;
70247;SDS011;57641;51.416;5.506;2022-08-03T07:43:54;5.88;;;2.00;;
70247;SDS011;57641;51.416;5.506;2022-08-03T07:46:19;5.60;;;1.67;;
70247;SDS011;57641;51.416;5.506;2022-08-03T07:48:45;6.00;;;1.55;;
70247;SDS011;57641;51.416;5.506;2022-08-03T07:51:10;6.82;;;1.85;;
70247;SDS011;57641;51.416;5.506;2022-08-03T07:53:36;4.85;;;1.33;;
70247;SDS011;57641;51.416;5.506;2022-08-03T07:56:01;4.65;;;1.83;;
70247;SDS011;57641;51.416;5.506;2022-08-03T07:58:27;8.15;;;1.67;;
70247;SDS011;57641;51.416;5.506;2022-08-03T08:00:52;3.45;;;1.38;;
70247;SDS011;57641;51.416;5.506;2022-08-03T08:03:17;7.95;;;1.83;;
70247;SDS011;57641;51.416;5.506;2022-08-03T08:05:43;4.55;;;1.38;;
70247;SDS011;57641;51.416;5.506;2022-08-03T08:08:09;8.40;;;2.00;;
70247;SDS011;57641;51.416;5.506;2022-08-03T08:10:35;7.68;;;2.25;;
70247;SDS011;57641;51.416;5.506;2022-08-03T08:13:01;5.25;;;2.00;;
70247;SDS011;57641;51.416;5.506;2022-08-03T08:15:27;3.67;;;1.40;;
70247;SDS011;57641;51.416;5.506;2022-08-03T08:17:53;4.95;;;1.40;;
70247;SDS011;57641;51.416;5.506;2022-08-03T08:20:24;4.90;;;1.52;;
70247;SDS011;57641;51.416;5.506;2022-08-03T08:22:54;9.35;;;1.60;;
70247;SDS011;57641;51.416;5.506;2022-08-03T08:25:21;5.05;;;2.00;;
70247;SDS011;57641;51.416;5.506;2022-08-03T08:27:47;4.85;;;1.50;;
70247;SDS011;57641;51.416;5.506;2022-08-03T08:30:14;8.20;;;1.95;;
70247;SDS011;57641;51.416;5.506;2022-08-03T08:32:42;3.28;;;1.30;;
70247;SDS011;57641;51.416;5.506;2022-08-03T08:35:09;6.32;;;1.48;;
70247;SDS011;57641;51.416;5.506;2022-08-03T08:37:35;6.15;;;1.70;;
70247;SDS011;57641;51.416;5.506;2022-08-03T08:40:02;4.35;;;1.77;;
70247;SDS011;57641;51.416;5.506;2022-08-03T08:42:29;8.10;;;1.70;;
70247;SDS011;57641;51.416;5.506;2022-08-03T08:44:56;6.32;;;1.83;;
70247;SDS011;57641;51.416;5.506;2022-08-03T08:47:24;8.82;;;1.80;;
70247;SDS011;57641;51.416;5.506;2022-08-03T08:49:53;8.10;;;1.70;;
70247;SDS011;57641;51.416;5.506;2022-08-03T08:52:26;3.90;;;1.83;;
70247;SDS011;57641;51.416;5.506;2022-08-03T08:54:56;9.20;;;2.03;;
70247;SDS011;57641;51.416;5.506;2022-08-03T08:57:33;4.53;;;1.27;;
70247;SDS011;57641;51.416;5.506;2022-08-03T09:00:03;7.53;;;1.70;;
70247;SDS011;57641;51.416;5.506;2022-08-03T09:02:35;6.85;;;1.70;;
70247;SDS011;57641;51.416;5.506;2022-08-03T09:05:01;5.80;;;1.83;;
70247;SDS011;57641;51.416;5.506;2022-08-03T09:07:28;6.22;;;1.40;;
70247;SDS011;57641;51.416;5.506;2022-08-03T09:09:54;6.35;;;1.50;;
70247;SDS011;57641;51.416;5.506;2022-08-03T09:12:20;4.90;;;1.33;;
70247;SDS011;57641;51.416;5.506;2022-08-03T09:14:46;5.90;;;1.23;;
70247;SDS011;57641;51.416;5.506;2022-08-03T09:17:11;7.07;;;1.40;;
70247;SDS011;57641;51.416;5.506;2022-08-03T09:19:36;4.90;;;1.45;;
70247;SDS011;57641;51.416;5.506;2022-08-03T09:22:15;7.07;;;1.50;;
70247;SDS011;57641;51.416;5.506;2022-08-03T09:24:55;7.53;;;1.52;;
70247;SDS011;57641;51.416;5.506;2022-08-03T09:27:22;6.88;;;1.80;;
70247;SDS011;57641;51.416;5.506;2022-08-03T09:29:49;6.70;;;1.52;;
70247;SDS011;57641;51.416;5.506;2022-08-03T09:32:18;6.97;;;1.65;;
70247;SDS011;57641;51.416;5.506;2022-08-03T09:34:49;5.65;;;1.38;;
70247;SDS011;57641;51.416;5.506;2022-08-03T09:37:16;5.65;;;1.35;;
70247;SDS011;57641;51.416;5.506;2022-08-03T09:39:43;6.57;;;1.38;;
70247;SDS011;57641;51.416;5.506;2022-08-03T09:42:13;6.25;;;1.55;;
70247;SDS011;57641;51.416;5.506;2022-08-03T09:44:44;5.40;;;1.50;;
70247;SDS011;57641;51.416;5.506;2022-08-03T09:47:15;11.02;;;1.70;;
70247;SDS011;57641;51.416;5.506;2022-08-03T09:50:04;6.43;;;1.55;;
70247;SDS011;57641;51.416;5.506;2022-08-03T09:55:00;6.50;;;1.55;;
70247;SDS011;57641;51.416;5.506;2022-08-03T09:57:31;8.25;;;2.05;;
70247;SDS011;57641;51.416;5.506;2022-08-03T10:00:07;5.72;;;1.40;;
70247;SDS011;57641;51.416;5.506;2022-08-03T10:02:36;8.10;;;1.52;;
70247;SDS011;57641;51.416;5.506;2022-08-03T10:05:03;4.97;;;1.40;;
70247;SDS011;57641;51.416;5.506;2022-08-03T10:07:29;9.82;;;1.48;;
70247;SDS011;57641;51.416;5.506;2022-08-03T10:10:05;9.00;;;1.45;;
70247;SDS011;57641;51.416;5.506;2022-08-03T10:12:31;3.45;;;1.20;;
70247;SDS011;57641;51.416;5.506;2022-08-03T10:14:58;3.13;;;1.00;;
70247;SDS011;57641;51.416;5.506;2022-08-03T10:17:23;5.70;;;1.85;;
70247;SDS011;57641;51.416;5.506;2022-08-03T10:19:49;9.38;;;1.55;;
70247;SDS011;57641;51.416;5.506;2022-08-03T10:22:21;10.25;;;1.60;;
70247;SDS011;57641;51.416;5.506;2022-08-03T10:25:05;7.90;;;1.50;;
70247;SDS011;57641;51.416;5.506;2022-08-03T10:27:38;6.25;;;1.70;;
70247;SDS011;57641;51.416;5.506;2022-08-03T10:30:09;8.82;;;1.95;;
70247;SDS011;57641;51.416;5.506;2022-08-03T10:32:42;7.82;;;2.08;;
70247;SDS011;57641;51.416;5.506;2022-08-03T10:35:16;6.80;;;2.15;;
70247;SDS011;57641;51.416;5.506;2022-08-03T10:37:44;7.00;;;1.67;;
70247;SDS011;57641;51.416;5.506;2022-08-03T10:40:26;6.18;;;1.55;;
70247;SDS011;57641;51.416;5.506;2022-08-03T10:42:54;7.40;;;1.73;;
70247;SDS011;57641;51.416;5.506;2022-08-03T10:45:23;5.53;;;1.60;;
70247;SDS011;57641;51.416;5.506;2022-08-03T10:47:50;6.38;;;1.50;;
70247;SDS011;57641;51.416;5.506;2022-08-03T10:50:21;7.07;;;1.73;;
70247;SDS011;57641;51.416;5.506;2022-08-03T10:52:58;8.45;;;1.55;;
70247;SDS011;57641;51.416;5.506;2022-08-03T10:55:34;6.07;;;1.63;;
70247;SDS011;57641;51.416;5.506;2022-08-03T11:01:01;5.10;;;1.20;;
70247;SDS011;57641;51.416;5.506;2022-08-03T11:03:31;5.53;;;1.67;;
70247;SDS011;57641;51.416;5.506;2022-08-03T11:06:16;4.00;;;1.00;;
70247;SDS011;57641;51.416;5.506;2022-08-03T11:08:47;6.75;;;1.30;;
70247;SDS011;57641;51.416;5.506;2022-08-03T11:13:59;5.35;;;1.33;;
70247;SDS011;57641;51.416;5.506;2022-08-03T11:16:27;3.13;;;1.00;;
70247;SDS011;57641;51.416;5.506;2022-08-03T11:19:04;6.32;;;1.40;;
70247;SDS011;57641;51.416;5.506;2022-08-03T11:27:34;3.33;;;1.20;;
70247;SDS011;57641;51.416;5.506;2022-08-03T11:29:57;3.85;;;1.10;;
70247;SDS011;57641;51.416;5.506;2022-08-03T11:35:17;5.95;;;1.30;;
70247;SDS011;57641;51.416;5.506;2022-08-03T11:50:58;5.85;;;1.50;;
70247;SDS011;57641;51.416;5.506;2022-08-03T11:53:24;5.78;;;1.20;;
70247;SDS011;57641;51.416;5.506;2022-08-03T11:55:51;7.20;;;1.38;;
70247;SDS011;57641;51.416;5.506;2022-08-03T11:58:21;4.25;;;1.13;;
70247;SDS011;57641;51.416;5.506;2022-08-03T12:00:48;5.25;;;1.60;;
70247;SDS011;57641;51.416;5.506;2022-08-03T12:03:16;3.20;;;1.50;;
70247;SDS011;57641;51.416;5.506;2022-08-03T12:05:46;7.25;;;1.48;;
70247;SDS011;57641;51.416;5.506;2022-08-03T12:08:13;6.13;;;1.50;;
70247;SDS011;57641;51.416;5.506;2022-08-03T12:10:45;4.30;;;1.15;;
70247;SDS011;57641;51.416;5.506;2022-08-03T12:13:13;4.38;;;1.45;;
70247;SDS011;57641;51.416;5.506;2022-08-03T12:15:39;5.45;;;1.33;;
70247;SDS011;57641;51.416;5.506;2022-08-03T12:18:16;3.65;;;1.23;;
70247;SDS011;57641;51.416;5.506;2022-08-03T12:20:43;5.13;;;1.30;;
70247;SDS011;57641;51.416;5.506;2022-08-03T12:23:10;5.22;;;1.13;;
70247;SDS011;57641;51.416;5.506;2022-08-03T12:25:36;5.40;;;1.35;;
70247;SDS011;57641;51.416;5.506;2022-08-03T12:30:37;4.85;;;1.63;;
70247;SDS011;57641;51.416;5.506;2022-08-03T12:34:05;4.85;;;1.20;;
70247;SDS011;57641;51.416;5.506;2022-08-03T12:36:17;4.40;;;1.50;;
70247;SDS011;57641;51.416;5.506;2022-08-03T12:38:43;4.85;;;1.30;;
70247;SDS011;57641;51.416;5.506;2022-08-03T12:41:26;3.80;;;1.25;;
70247;SDS011;57641;51.416;5.506;2022-08-03T12:43:53;5.28;;;1.05;;
70247;SDS011;57641;51.416;5.506;2022-08-03T12:46:19;6.13;;;1.23;;
70247;SDS011;57641;51.416;5.506;2022-08-03T12:48:58;3.08;;;1.30;;
70247;SDS011;57641;51.416;5.506;2022-08-03T12:51:26;5.88;;;1.30;;
70247;SDS011;57641;51.416;5.506;2022-08-03T12:53:53;3.03;;;1.10;;
70247;SDS011;57641;51.416;5.506;2022-08-03T12:56:19;3.33;;;0.98;;
70247;SDS011;57641;51.416;5.506;2022-08-03T12:58:45;6.88;;;1.55;;
70247;SDS011;57641;51.416;5.506;2022-08-03T13:01:12;5.32;;;1.20;;
70247;SDS011;57641;51.416;5.506;2022-08-03T13:03:45;3.00;;;1.05;;
70247;SDS011;57641;51.416;5.506;2022-08-03T13:06:13;2.78;;;1.00;;
70247;SDS011;57641;51.416;5.506;2022-08-03T13:08:39;4.63;;;1.20;;
70247;SDS011;57641;51.416;5.506;2022-08-03T13:11:18;3.90;;;1.00;;
70247;SDS011;57641;51.416;5.506;2022-08-03T13:16:17;4.82;;;1.40;;
70247;SDS011;57641;51.416;5.506;2022-08-03T13:18:43;3.25;;;1.10;;
70247;SDS011;57641;51.416;5.506;2022-08-03T13:21:11;3.95;;;1.45;;
70247;SDS011;57641;51.416;5.506;2022-08-03T13:23:38;7.25;;;1.42;;
70247;SDS011;57641;51.416;5.506;2022-08-03T13:26:04;3.95;;;1.20;;
70247;SDS011;57641;51.416;5.506;2022-08-03T13:28:29;2.72;;;1.00;;
70247;SDS011;57641;51.416;5.506;2022-08-03T13:30:55;2.55;;;1.10;;
70247;SDS011;57641;51.416;5.506;2022-08-03T13:33:20;3.38;;;1.20;;
70247;SDS011;57641;51.416;5.506;2022-08-03T13:35:46;5.47;;;1.25;;
70247;SDS011;57641;51.416;5.506;2022-08-03T13:38:11;4.40;;;1.15;;
70247;SDS011;57641;51.416;5.506;2022-08-03T13:40:37;3.55;;;1.42;;
70247;SDS011;57641;51.416;5.506;2022-08-03T13:43:02;4.95;;;1.25;;
70247;SDS011;57641;51.416;5.506;2022-08-03T13:45:28;3.65;;;1.20;;
70247;SDS011;57641;51.416;5.506;2022-08-03T13:47:53;4.15;;;1.08;;
70247;SDS011;57641;51.416;5.506;2022-08-03T13:50:19;2.33;;;1.05;;
70247;SDS011;57641;51.416;5.506;2022-08-03T13:52:45;5.35;;;1.55;;
70247;SDS011;57641;51.416;5.506;2022-08-03T13:55:11;3.78;;;1.20;;
70247;SDS011;57641;51.416;5.506;2022-08-03T13:57:36;2.40;;;1.23;;
70247;SDS011;57641;51.416;5.506;2022-08-03T14:00:03;2.90;;;1.10;;
70247;SDS011;57641;51.416;5.506;2022-08-03T14:02:29;2.72;;;1.05;;
70247;SDS011;57641;51.416;5.506;2022-08-03T14:04:55;4.57;;;1.50;;
70247;SDS011;57641;51.416;5.506;2022-08-03T14:07:20;3.40;;;1.00;;
70247;SDS011;57641;51.416;5.506;2022-08-03T14:09:46;2.75;;;1.30;;
70247;SDS011;57641;51.416;5.506;2022-08-03T14:12:11;3.22;;;1.00;;
70247;SDS011;57641;51.416;5.506;2022-08-03T14:14:37;2.03;;;1.15;;
70247;SDS011;57641;51.416;5.506;2022-08-03T14:17:02;3.85;;;1.20;;
70247;SDS011;57641;51.416;5.506;2022-08-03T14:19:28;4.65;;;1.50;;
70247;SDS011;57641;51.416;5.506;2022-08-03T14:21:53;3.17;;;1.20;;
70247;SDS011;57641;51.416;5.506;2022-08-03T14:24:19;3.92;;;1.23;;
70247;SDS011;57641;51.416;5.506;2022-08-03T14:26:44;4.18;;;1.30;;
70247;SDS011;57641;51.416;5.506;2022-08-03T14:29:10;7.07;;;1.50;;
70247;SDS011;57641;51.416;5.506;2022-08-03T14:31:35;2.55;;;1.30;;
70247;SDS011;57641;51.416;5.506;2022-08-03T14:34:01;3.72;;;1.13;;
70247;SDS011;57641;51.416;5.506;2022-08-03T14:36:27;1.58;;;1.40;;
70247;SDS011;57641;51.416;5.506;2022-08-03T14:38:53;3.38;;;1.08;;
70247;SDS011;57641;51.416;5.506;2022-08-03T14:41:18;4.55;;;1.40;;
70247;SDS011;57641;51.416;5.506;2022-08-03T14:43:44;2.53;;;1.20;;
70247;SDS011;57641;51.416;5.506;2022-08-03T14:46:09;3.45;;;1.10;;
70247;SDS011;57641;51.416;5.506;2022-08-03T14:48:35;2.33;;;1.08;;
70247;SDS011;57641;51.416;5.506;2022-08-03T14:51:01;3.60;;;1.15;;
70247;SDS011;57641;51.416;5.506;2022-08-03T14:53:28;2.30;;;1.13;;
70247;SDS011;57641;51.416;5.506;2022-08-03T14:55:54;2.13;;;1.15;;
70247;SDS011;57641;51.416;5.506;2022-08-03T14:58:20;3.10;;;1.25;;
70247;SDS011;57641;51.416;5.506;2022-08-03T15:00:47;2.10;;;1.00;;
70247;SDS011;57641;51.416;5.506;2022-08-03T15:03:15;2.42;;;1.08;;
70247;SDS011;57641;51.416;5.506;2022-08-03T15:05:44;2.13;;;0.98;;
70247;SDS011;57641;51.416;5.506;2022-08-03T15:08:09;3.63;;;1.00;;
70247;SDS011;57641;51.416;5.506;2022-08-03T15:10:35;5.95;;;1.27;;
70247;SDS011;57641;51.416;5.506;2022-08-03T15:13:01;4.10;;;1.20;;
70247;SDS011;57641;51.416;5.506;2022-08-03T15:15:27;4.25;;;1.20;;
70247;SDS011;57641;51.416;5.506;2022-08-03T15:17:53;3.65;;;1.10;;
70247;SDS011;57641;51.416;5.506;2022-08-03T15:20:22;3.33;;;1.10;;
70247;SDS011;57641;51.416;5.506;2022-08-03T15:22:48;3.20;;;0.90;;
70247;SDS011;57641;51.416;5.506;2022-08-03T15:25:13;4.93;;;1.20;;
70247;SDS011;57641;51.416;5.506;2022-08-03T15:27:38;2.50;;;0.90;;
70247;SDS011;57641;51.416;5.506;2022-08-03T15:30:04;4.13;;;1.08;;
70247;SDS011;57641;51.416;5.506;2022-08-03T15:32:33;1.88;;;1.00;;
70247;SDS011;57641;51.416;5.506;2022-08-03T15:34:59;3.15;;;1.20;;
70247;SDS011;57641;51.416;5.506;2022-08-03T15:37:24;1.83;;;1.00;;
70247;SDS011;57641;51.416;5.506;2022-08-03T15:39:50;5.40;;;1.10;;
70247;SDS011;57641;51.416;5.506;2022-08-03T15:42:16;3.33;;;1.20;;
70247;SDS011;57641;51.416;5.506;2022-08-03T15:44:41;1.75;;;0.90;;
70247;SDS011;57641;51.416;5.506;2022-08-03T15:47:06;2.40;;;1.10;;